sensor_id;sensor_type;location;lat;lon;timestamp;P1;durP1;ratioP1;P2;durP2;ratioP2
4407;SDS011;2217;48.460;7.934;2022-08-21T00:01:25;2.70;;;0.90;;
4407;SDS011;2217;48.460;7.934;2022-08-21T00:03:53;2.67;;;0.90;;
4407;SDS011;2217;48.460;7.934;2022-08-21T00:06:21;2.67;;;0.90;;
4407;SDS011;2217;48.460;7.934;2022-08-21T00:08:48;2.60;;;0.90;;
4407;SDS011;2217;48.460;7.934;2022-08-21T00:11:16;2.70;;;0.90;;
4407;SDS011;2217;48.460;7.934;2022-08-21T00:13:45;2.60;;;0.80;;
4407;SDS011;2217;48.460;7.934;2022-08-21T00:16:12;2.60;;;0.90;;
4407;SDS011;2217;48.460;7.934;2022-08-21T00:18:40;2.60;;;0.90;;
4407;SDS011;2217;48.460;7.934;2022-08-21T00:21:07;2.70;;;0.93;;
4407;SDS011;2217;48.460;7.934;2022-08-21T00:23:35;2.60;;;0.90;;
4407;SDS011;2217;48.460;7.934;2022-08-21T00:26:02;2.60;;;0.87;;
4407;SDS011;2217;48.460;7.934;2022-08-21T00:28:31;2.60;;;1.00;;
4407;SDS011;2217;48.460;7.934;2022-08-21T00:31:00;2.60;;;0.80;;
4407;SDS011;2217;48.460;7.934;2022-08-21T00:33:29;2.60;;;0.80;;
4407;SDS011;2217;48.460;7.934;2022-08-21T00:35:56;2.60;;;0.90;;
4407;SDS011;2217;48.460;7.934;2022-08-21T00:38:23;2.60;;;0.80;;
4407;SDS011;2217;48.460;7.934;2022-08-21T00:40:51;2.60;;;0.90;;
4407;SDS011;2217;48.460;7.934;2022-08-21T00:43:20;2.60;;;0.90;;
4407;SDS011;2217;48.460;7.934;2022-08-21T00:45:48;2.60;;;0.90;;
4407;SDS011;2217;48.460;7.934;2022-08-21T00:48:17;2.60;;;0.80;;
4407;SDS011;2217;48.460;7.934;2022-08-21T00:50:48;2.60;;;0.90;;
4407;SDS011;2217;48.460;7.934;2022-08-21T00:53:17;2.60;;;0.90;;
4407;SDS011;2217;48.460;7.934;2022-08-21T00:55:44;2.60;;;0.90;;
4407;SDS011;2217;48.460;7.934;2022-08-21T00:58:13;2.60;;;0.90;;
4407;SDS011;2217;48.460;7.934;2022-08-21T01:00:42;2.60;;;1.00;;
4407;SDS011;2217;48.460;7.934;2022-08-21T01:03:12;2.60;;;0.90;;
4407;SDS011;2217;48.460;7.934;2022-08-21T01:05:41;2.60;;;0.90;;
4407;SDS011;2217;48.460;7.934;2022-08-21T01:08:15;2.60;;;0.90;;
4407;SDS011;2217;48.460;7.934;2022-08-21T01:10:43;2.60;;;1.00;;
4407;SDS011;2217;48.460;7.934;2022-08-21T01:13:12;2.50;;;0.90;;
4407;SDS011;2217;48.460;7.934;2022-08-21T01:15:42;2.53;;;0.80;;
4407;SDS011;2217;48.460;7.934;2022-08-21T01:18:10;2.50;;;0.80;;
4407;SDS011;2217;48.460;7.934;2022-08-21T01:20:38;2.50;;;0.90;;
4407;SDS011;2217;48.460;7.934;2022-08-21T01:23:07;2.50;;;0.90;;
4407;SDS011;2217;48.460;7.934;2022-08-21T01:25:35;2.50;;;0.90;;
4407;SDS011;2217;48.460;7.934;2022-08-21T01:28:06;2.50;;;0.80;;
4407;SDS011;2217;48.460;7.934;2022-08-21T01:30:36;2.50;;;0.90;;
4407;SDS011;2217;48.460;7.934;2022-08-21T01:33:04;2.50;;;0.83;;
4407;SDS011;2217;48.460;7.934;2022-08-21T01:35:31;2.50;;;0.90;;
4407;SDS011;2217;48.460;7.934;2022-08-21T01:37:58;2.50;;;0.80;;
4407;SDS011;2217;48.460;7.934;2022-08-21T01:40:27;2.50;;;0.90;;
4407;SDS011;2217;48.460;7.934;2022-08-21T01:42:54;2.50;;;0.90;;
4407;SDS011;2217;48.460;7.934;2022-08-21T01:45:22;2.50;;;0.90;;
4407;SDS011;2217;48.460;7.934;2022-08-21T01:47:49;2.50;;;0.80;;
4407;SDS011;2217;48.460;7.934;2022-08-21T01:50:18;2.50;;;1.00;;
4407;SDS011;2217;48.460;7.934;2022-08-21T01:52:45;2.50;;;0.87;;
4407;SDS011;2217;48.460;7.934;2022-08-21T01:55:18;2.50;;;0.90;;
4407;SDS011;2217;48.460;7.934;2022-08-21T01:57:48;2.50;;;0.90;;
4407;SDS011;2217;48.460;7.934;2022-08-21T02:00:17;2.50;;;1.00;;
4407;SDS011;2217;48.460;7.934;2022-08-21T02:02:44;2.50;;;0.90;;
4407;SDS011;2217;48.460;7.934;2022-08-21T02:05:12;2.50;;;1.00;;
4407;SDS011;2217;48.460;7.934;2022-08-21T02:07:40;2.40;;;0.90;;
4407;SDS011;2217;48.460;7.934;2022-08-21T02:10:10;2.40;;;0.90;;
4407;SDS011;2217;48.460;7.934;2022-08-21T02:12:38;2.43;;;1.00;;
4407;SDS011;2217;48.460;7.934;2022-08-21T02:15:07;2.40;;;0.90;;
4407;SDS011;2217;48.460;7.934;2022-08-21T02:17:39;2.40;;;0.83;;
4407;SDS011;2217;48.460;7.934;2022-08-21T02:20:09;2.40;;;0.90;;
4407;SDS011;2217;48.460;7.934;2022-08-21T02:22:37;2.40;;;0.90;;
4407;SDS011;2217;48.460;7.934;2022-08-21T02:25:04;2.40;;;1.00;;
4407;SDS011;2217;48.460;7.934;2022-08-21T02:27:37;2.40;;;0.90;;
4407;SDS011;2217;48.460;7.934;2022-08-21T02:30:04;2.40;;;1.00;;
4407;SDS011;2217;48.460;7.934;2022-08-21T02:32:33;2.40;;;0.90;;
4407;SDS011;2217;48.460;7.934;2022-08-21T06:12:02;2.30;;;0.90;;
4407;SDS011;2217;48.460;7.934;2022-08-21T06:14:56;2.30;;;0.80;;
4407;SDS011;2217;48.460;7.934;2022-08-21T06:17:59;2.30;;;0.87;;
4407;SDS011;2217;48.460;7.934;2022-08-21T06:23:48;2.30;;;0.83;;
4407;SDS011;2217;48.460;7.934;2022-08-21T06:26:42;2.30;;;0.80;;
4407;SDS011;2217;48.460;7.934;2022-08-21T06:44:40;2.40;;;0.90;;
4407;SDS011;2217;48.460;7.934;2022-08-21T06:47:31;2.40;;;0.87;;
4407;SDS011;2217;48.460;7.934;2022-08-21T06:50:14;2.40;;;0.80;;
4407;SDS011;2217;48.460;7.934;2022-08-21T06:53:08;2.40;;;0.80;;
4407;SDS011;2217;48.460;7.934;2022-08-21T06:55:58;2.40;;;0.83;;
4407;SDS011;2217;48.460;7.934;2022-08-21T06:58:52;2.40;;;0.80;;
4407;SDS011;2217;48.460;7.934;2022-08-21T07:07:31;2.37;;;0.80;;
4407;SDS011;2217;48.460;7.934;2022-08-21T07:10:13;2.40;;;0.80;;
4407;SDS011;2217;48.460;7.934;2022-08-21T07:16:04;2.40;;;0.80;;
4407;SDS011;2217;48.460;7.934;2022-08-21T07:21:57;2.40;;;0.80;;
4407;SDS011;2217;48.460;7.934;2022-08-21T07:57:52;2.67;;;0.80;;
4407;SDS011;2217;48.460;7.934;2022-08-21T08:00:43;2.67;;;0.80;;
4407;SDS011;2217;48.460;7.934;2022-08-21T08:03:49;2.77;;;0.80;;
4407;SDS011;2217;48.460;7.934;2022-08-21T08:06:30;2.80;;;0.83;;
4407;SDS011;2217;48.460;7.934;2022-08-21T08:09:20;2.90;;;0.80;;
4407;SDS011;2217;48.460;7.934;2022-08-21T08:12:02;2.90;;;0.80;;
4407;SDS011;2217;48.460;7.934;2022-08-21T08:26:44;3.40;;;0.80;;
4407;SDS011;2217;48.460;7.934;2022-08-21T08:29:12;3.50;;;0.90;;
4407;SDS011;2217;48.460;7.934;2022-08-21T08:31:53;3.60;;;0.80;;
4407;SDS011;2217;48.460;7.934;2022-08-21T08:34:43;3.70;;;0.80;;
4407;SDS011;2217;48.460;7.934;2022-08-21T08:37:30;3.73;;;0.80;;
4407;SDS011;2217;48.460;7.934;2022-08-21T08:40:23;3.80;;;0.80;;
4407;SDS011;2217;48.460;7.934;2022-08-21T08:58:37;4.30;;;0.75;;
4407;SDS011;2217;48.460;7.934;2022-08-21T09:01:24;4.35;;;0.80;;
4407;SDS011;2217;48.460;7.934;2022-08-21T09:04:27;4.50;;;0.80;;
4407;SDS011;2217;48.460;7.934;2022-08-21T09:07:04;4.53;;;0.70;;
4407;SDS011;2217;48.460;7.934;2022-08-21T09:12:52;4.75;;;0.80;;
4407;SDS011;2217;48.460;7.934;2022-08-21T09:19:04;4.85;;;0.75;;
4407;SDS011;2217;48.460;7.934;2022-08-21T09:21:57;4.90;;;0.80;;
4407;SDS011;2217;48.460;7.934;2022-08-21T09:24:29;4.95;;;0.77;;
4407;SDS011;2217;48.460;7.934;2022-08-21T09:30:07;5.00;;;0.75;;
4407;SDS011;2217;48.460;7.934;2022-08-21T09:33:12;4.97;;;0.77;;
4407;SDS011;2217;48.460;7.934;2022-08-21T10:24:43;5.78;;;0.80;;
4407;SDS011;2217;48.460;7.934;2022-08-21T10:27:33;5.78;;;0.80;;
4407;SDS011;2217;48.460;7.934;2022-08-21T10:30:20;5.70;;;0.80;;
4407;SDS011;2217;48.460;7.934;2022-08-21T10:33:06;5.70;;;0.80;;
4407;SDS011;2217;48.460;7.934;2022-08-21T10:35:56;5.63;;;0.80;;
4407;SDS011;2217;48.460;7.934;2022-08-21T14:40:07;6.78;;;0.80;;
4407;SDS011;2217;48.460;7.934;2022-08-21T14:42:50;6.78;;;0.80;;
4407;SDS011;2217;48.460;7.934;2022-08-21T14:45:28;6.78;;;0.80;;
4407;SDS011;2217;48.460;7.934;2022-08-21T14:47:59;6.78;;;0.80;;
4407;SDS011;2217;48.460;7.934;2022-08-21T14:50:41;6.80;;;0.80;;
4407;SDS011;2217;48.460;7.934;2022-08-21T15:08:25;6.53;;;0.90;;
4407;SDS011;2217;48.460;7.934;2022-08-21T15:23:22;6.35;;;0.90;;
4407;SDS011;2217;48.460;7.934;2022-08-21T15:41:33;6.18;;;0.88;;
4407;SDS011;2217;48.460;7.934;2022-08-21T15:44:06;6.18;;;0.90;;
4407;SDS011;2217;48.460;7.934;2022-08-21T15:46:55;6.18;;;0.82;;
4407;SDS011;2217;48.460;7.934;2022-08-21T15:49:37;6.07;;;0.82;;
4407;SDS011;2217;48.460;7.934;2022-08-21T15:52:08;6.05;;;0.90;;
4407;SDS011;2217;48.460;7.934;2022-08-21T15:55:02;6.00;;;0.88;;
4407;SDS011;2217;48.460;7.934;2022-08-21T16:28:17;5.97;;;0.90;;
4407;SDS011;2217;48.460;7.934;2022-08-21T16:40:21;5.97;;;0.90;;
4407;SDS011;2217;48.460;7.934;2022-08-21T17:35:52;5.50;;;0.90;;
4407;SDS011;2217;48.460;7.934;2022-08-21T17:38:37;5.50;;;0.90;;
4407;SDS011;2217;48.460;7.934;2022-08-21T17:41:12;5.50;;;0.90;;
4407;SDS011;2217;48.460;7.934;2022-08-21T17:43:44;5.43;;;0.90;;
4407;SDS011;2217;48.460;7.934;2022-08-21T17:46:46;5.40;;;0.90;;
4407;SDS011;2217;48.460;7.934;2022-08-21T17:49:29;5.43;;;0.93;;
4407;SDS011;2217;48.460;7.934;2022-08-21T22:22:22;3.70;;;0.90;;
4407;SDS011;2217;48.460;7.934;2022-08-21T22:25:11;3.80;;;0.90;;
4407;SDS011;2217;48.460;7.934;2022-08-21T22:28:08;3.73;;;0.90;;
4407;SDS011;2217;48.460;7.934;2022-08-21T22:30:52;3.77;;;0.90;;
4407;SDS011;2217;48.460;7.934;2022-08-21T22:33:33;3.70;;;0.90;;
4407;SDS011;2217;48.460;7.934;2022-08-21T22:36:22;3.70;;;0.90;;
4407;SDS011;2217;48.460;7.934;2022-08-21T23:08:25;3.70;;;0.90;;
4407;SDS011;2217;48.460;7.934;2022-08-21T23:11:11;3.70;;;0.90;;
4407;SDS011;2217;48.460;7.934;2022-08-21T23:14:12;3.70;;;0.90;;
4407;SDS011;2217;48.460;7.934;2022-08-21T23:16:55;3.70;;;0.90;;
4407;SDS011;2217;48.460;7.934;2022-08-21T23:19:40;3.70;;;0.90;;
4407;SDS011;2217;48.460;7.934;2022-08-21T23:22:30;3.70;;;0.90;;
4407;SDS011;2217;48.460;7.934;2022-08-21T23:48:50;3.63;;;0.90;;
4407;SDS011;2217;48.460;7.934;2022-08-21T23:51:49;3.67;;;0.90;;
4407;SDS011;2217;48.460;7.934;2022-08-21T23:54:39;3.63;;;0.90;;
4407;SDS011;2217;48.460;7.934;2022-08-21T23:57:19;3.67;;;0.90;;
